Time;durP1;ratioP1;P1;durP2;ratioP2;P2;SDS_P1;SDS_P2;PMS_P1;PMS_P2;Temp;Humidity;BMP_temperature;BMP_pressure;BME280_temperature;BME280_humidity;BME280_pressure;Samples;Min_cycle;Max_cycle;Signal;HPM_P1;HPM_P2
2022/04/04 00:00:48;;;;;;;14.40;9.47;;;;;;;-0.62;71.46;95723.97;1766204;81;21015;-62
2022/04/04 00:03:15;;;;;;;17.47;9.77;;;;;;;-0.64;71.88;95724.77;1766211;81;21022;-62
2022/04/04 00:05:41;;;;;;;18.90;9.60;;;;;;;-0.66;71.95;95724.71;1766407;81;21038;-62
2022/04/04 00:08:09;;;;;;;13.73;9.50;;;;;;;-0.66;72.19;95726.00;1766158;81;20987;-63
2022/04/04 00:10:36;;;;;;;12.17;8.13;;;;;;;-0.68;72.13;95724.69;1761533;81;21098;-62
2022/04/04 00:13:02;;;;;;;12.17;9.53;;;;;;;-0.78;72.24;95730.47;1766248;81;21030;-62
2022/04/04 00:15:29;;;;;;;14.80;9.90;;;;;;;-0.82;72.46;95723.44;1766444;81;21022;-62
2022/04/04 00:17:56;;;;;;;16.83;9.40;;;;;;;-0.81;72.76;95730.78;1766446;81;21026;-62
2022/04/04 00:20:23;;;;;;;13.07;8.77;;;;;;;-0.86;72.88;95725.47;1766264;81;21469;-62
2022/04/04 00:22:50;;;;;;;13.97;9.53;;;;;;;-0.83;73.16;95724.67;1766276;81;20958;-62
2022/04/04 00:25:17;;;;;;;18.60;9.87;;;;;;;-0.79;73.25;95735.16;1766638;81;21062;-62
2022/04/04 00:27:44;;;;;;;17.83;10.03;;;;;;;-0.70;73.38;95731.97;1766332;81;20963;-62
2022/04/04 00:30:11;;;;;;;15.00;9.87;;;;;;;-0.67;73.14;95727.73;1766273;81;21528;-62
2022/04/04 00:32:38;;;;;;;16.47;9.63;;;;;;;-0.71;72.87;95731.48;1766464;81;20971;-62
2022/04/04 00:35:05;;;;;;;16.03;9.73;;;;;;;-0.74;73.08;95729.69;1766029;81;21042;-61
2022/04/04 00:37:34;;;;;;;11.77;7.83;;;;;;;-0.81;73.73;95732.95;1766436;81;21002;-62
2022/04/04 00:40:00;;;;;;;13.13;9.27;;;;;;;-0.82;73.43;95732.92;1766596;81;21014;-62
2022/04/04 00:42:27;;;;;;;12.23;8.20;;;;;;;-0.83;73.36;95729.86;1766476;81;20990;-62
2022/04/04 00:44:54;;;;;;;16.70;9.67;;;;;;;-0.87;73.69;95731.08;1766257;81;21468;-62
2022/04/04 00:47:21;;;;;;;15.43;10.10;;;;;;;-0.89;74.47;95734.45;1766639;81;21037;-62
2022/04/04 00:49:48;;;;;;;14.90;9.17;;;;;;;-0.88;74.60;95730.63;1766156;81;21572;-62
2022/04/04 00:52:15;;;;;;;15.00;9.53;;;;;;;-0.83;74.59;95732.05;1766115;81;21005;-61
2022/04/04 00:54:42;;;;;;;14.57;9.03;;;;;;;-0.84;74.13;95733.30;1766247;81;21038;-62
2022/04/04 00:57:09;;;;;;;16.90;9.47;;;;;;;-0.84;74.27;95729.41;1765872;81;21082;-62
2022/04/04 00:59:36;;;;;;;11.93;8.70;;;;;;;-0.81;74.76;95725.17;1762226;81;21082;-62
2022/04/04 01:02:05;;;;;;;15.20;9.23;;;;;;;-0.78;74.56;95719.20;1762571;81;21026;-62
2022/04/04 01:04:31;;;;;;;11.80;8.00;;;;;;;-0.71;74.52;95723.71;1762447;81;21049;-61
2022/04/04 01:07:01;;;;;;;12.53;8.23;;;;;;;-0.68;74.17;95720.80;1762592;81;21106;-61
2022/04/04 01:09:30;;;;;;;14.37;8.33;;;;;;;-0.65;73.72;95718.71;1762656;81;21022;-62
2022/04/04 01:12:11;;;;;;;13.17;8.93;;;;;;;-0.63;73.92;95720.93;1762065;81;20979;-62
2022/04/04 01:14:48;;;;;;;12.20;8.67;;;;;;;-0.56;73.96;95720.66;1762377;81;21058;-62
2022/04/04 01:17:18;;;;;;;14.13;9.00;;;;;;;-0.57;73.44;95719.78;1762516;81;21018;-62
2022/04/04 01:19:45;;;;;;;13.67;8.63;;;;;;;-0.56;73.55;95723.23;1762566;81;20967;-62
2022/04/04 01:22:14;;;;;;;11.80;7.60;;;;;;;-0.57;73.61;95721.08;1762770;81;21006;-63
2022/04/04 01:24:42;;;;;;;13.17;8.57;;;;;;;-0.61;73.46;95714.05;1762525;81;21057;-62
2022/04/04 01:27:15;;;;;;;13.27;8.23;;;;;;;-0.60;74.09;95718.41;1761835;81;21113;-62
2022/04/04 01:29:40;;;;;;;13.57;8.13;;;;;;;-0.57;73.87;95721.50;1761805;81;20995;-62
2022/04/04 01:32:08;;;;;;;11.07;7.40;;;;;;;-0.61;73.72;95722.24;1762507;81;21007;-62
2022/04/04 01:34:36;;;;;;;10.77;7.70;;;;;;;-0.64;74.09;95718.28;1762390;81;21495;-62
2022/04/04 01:37:03;;;;;;;10.93;7.93;;;;;;;-0.67;74.17;95725.56;1762700;81;21006;-62
2022/04/04 01:39:30;;;;;;;11.33;7.73;;;;;;;-0.68;74.34;95723.78;1762362;81;21416;-62
2022/04/04 01:41:57;;;;;;;11.23;8.40;;;;;;;-0.70;74.77;95725.06;1762254;81;20975;-62
2022/04/04 01:44:24;;;;;;;11.47;8.00;;;;;;;-0.73;74.96;95729.27;1762519;81;20979;-62
2022/04/04 01:46:51;;;;;;;12.90;7.53;;;;;;;-0.74;75.00;95735.30;1762561;81;21019;-62
2022/04/04 01:49:17;;;;;;;19.03;9.17;;;;;;;-0.78;76.11;95733.05;1753718;81;20974;-62
2022/04/04 01:51:44;;;;;;;14.77;9.00;;;;;;;-0.83;76.22;95731.15;1762596;81;21513;-62
2022/04/04 01:54:11;;;;;;;15.23;8.53;;;;;;;-0.85;76.69;95726.38;1762651;81;21357;-62
2022/04/04 01:56:38;;;;;;;11.43;7.23;;;;;;;-0.92;76.79;95722.30;1762592;81;20983;-62
2022/04/04 01:59:04;;;;;;;13.13;7.87;;;;;;;-0.96;76.53;95717.89;1764999;81;21590;-62
2022/04/04 02:01:34;;;;;;;12.37;7.97;;;;;;;-0.99;76.85;95717.78;1765823;81;21053;-62
2022/04/04 02:03:59;;;;;;;12.47;7.63;;;;;;;-0.87;76.93;95718.13;1766343;81;21089;-62
2022/04/04 02:06:27;;;;;;;13.27;8.53;;;;;;;-0.83;76.25;95719.09;1766311;81;20990;-62
2022/04/04 02:08:55;;;;;;;9.97;7.90;;;;;;;-0.96;76.82;95717.89;1766186;81;21025;-61
2022/04/04 02:11:23;;;;;;;8.57;6.20;;;;;;;-0.94;76.96;95721.38;1766331;81;21014;-62
2022/04/04 02:13:50;;;;;;;10.97;7.53;;;;;;;-0.98;76.79;95720.85;1766141;81;20999;-62
2022/04/04 02:16:16;;;;;;;11.50;7.97;;;;;;;-1.00;77.73;95722.94;1766211;81;20998;-62
2022/04/04 02:18:43;;;;;;;10.57;7.57;;;;;;;-0.88;77.56;95723.28;1766393;81;20994;-62
2022/04/04 02:21:10;;;;;;;9.67;6.73;;;;;;;-0.84;77.05;95726.81;1766352;81;21054;-62
2022/04/04 02:23:38;;;;;;;12.40;7.43;;;;;;;-0.95;76.51;95720.06;1766267;81;20994;-62
2022/04/04 02:26:05;;;;;;;10.43;5.67;;;;;;;-0.99;76.34;95719.50;1766322;81;21145;-61
2022/04/04 02:28:32;;;;;;;13.93;8.07;;;;;;;-0.97;76.38;95725.19;1766084;81;21018;-62
2022/04/04 02:30:59;;;;;;;14.63;10.27;;;;;;;-1.08;76.98;95722.73;1766132;81;21102;-62
2022/04/04 02:33:26;;;;;;;15.33;10.63;;;;;;;-1.06;77.53;95714.55;1766593;81;20978;-62
2022/04/04 02:35:54;;;;;;;14.40;8.67;;;;;;;-0.96;78.23;95722.17;1766206;81;21078;-62
2022/04/04 02:38:25;;;;;;;13.43;9.13;;;;;;;-0.91;77.97;95716.70;1766383;81;21061;-62
2022/04/04 02:40:53;;;;;;;20.10;11.23;;;;;;;-0.89;78.07;95724.97;1766581;81;21017;-62
2022/04/04 02:43:21;;;;;;;19.13;11.60;;;;;;;-0.75;78.07;95725.78;1765998;81;21027;-62
2022/04/04 02:45:48;;;;;;;19.13;10.67;;;;;;;-0.72;78.02;95725.44;1766483;81;21007;-62
2022/04/04 02:48:15;;;;;;;16.00;9.67;;;;;;;-0.69;77.48;95738.46;1766369;81;21018;-62
2022/04/04 02:50:44;;;;;;;19.97;11.20;;;;;;;-0.78;77.28;95728.27;1766070;81;21085;-62
2022/04/04 02:53:12;;;;;;;18.67;12.00;;;;;;;-0.92;77.94;95728.77;1766367;81;21071;-62
2022/04/04 02:58:24;;;;;;;15.90;10.93;;;;;;;-0.78;78.31;95737.33;1765854;81;21045;-62
2022/04/04 03:00:51;;;;;;;20.13;12.40;;;;;;;-0.82;78.61;95729.91;1766332;81;21496;-61
2022/04/04 03:03:19;;;;;;;18.10;10.97;;;;;;;-0.84;78.70;95726.81;1766220;81;21033;-62
2022/04/04 03:05:46;;;;;;;15.77;10.93;;;;;;;-0.83;78.81;95728.16;1766487;81;20959;-62
2022/04/04 03:08:13;;;;;;;16.53;9.47;;;;;;;-0.81;78.89;95723.00;1766075;81;21058;-62
2022/04/04 03:10:40;;;;;;;15.87;10.40;;;;;;;-0.81;78.81;95721.71;1766351;81;20994;-62
2022/04/04 03:13:07;;;;;;;18.13;10.97;;;;;;;-0.79;78.99;95720.92;1766042;81;21019;-62
2022/04/04 03:15:35;;;;;;;13.07;9.57;;;;;;;-0.78;79.08;95723.98;1766053;81;21065;-62
2022/04/04 03:18:04;;;;;;;15.43;9.50;;;;;;;-0.72;79.12;95715.06;1766366;81;21002;-62
2022/04/04 03:20:32;;;;;;;14.00;8.67;;;;;;;-0.69;78.65;95718.16;1766488;81;21041;-62
2022/04/04 03:23:00;;;;;;;14.03;9.37;;;;;;;-0.66;78.47;95716.94;1766458;81;20991;-62
2022/04/04 03:25:28;;;;;;;13.80;9.00;;;;;;;-0.68;78.33;95721.20;1766446;81;21494;-62
2022/04/04 03:27:55;;;;;;;12.87;9.53;;;;;;;-0.62;78.47;95719.20;1766445;81;21006;-62
2022/04/04 03:30:26;;;;;;;14.43;9.00;;;;;;;-0.69;78.34;95716.44;1766406;81;21084;-62
2022/04/04 03:32:57;;;;;;;11.93;8.27;;;;;;;-0.75;78.37;95720.59;1766197;81;20966;-62
2022/04/04 03:35:27;;;;;;;13.40;8.17;;;;;;;-0.71;78.61;95726.30;1766416;81;20998;-62
2022/04/04 03:37:57;;;;;;;9.97;7.37;;;;;;;-0.78;77.87;95721.79;1765819;81;20994;-62
2022/04/04 03:40:24;;;;;;;22.27;11.00;;;;;;;-0.81;78.22;95725.59;1766226;81;21050;-62
2022/04/04 03:42:54;;;;;;;15.73;10.20;;;;;;;-0.84;78.19;95722.50;1766264;81;20994;-62
2022/04/04 03:45:22;;;;;;;16.13;9.23;;;;;;;-0.83;78.41;95733.34;1766461;81;21010;-62
2022/04/04 03:47:49;;;;;;;59.23;26.63;;;;;;;-0.85;78.77;95731.13;1766257;81;20995;-62
2022/04/04 03:50:17;;;;;;;23.40;12.40;;;;;;;-0.84;78.95;95728.98;1766204;81;21034;-62
2022/04/04 03:52:47;;;;;;;18.30;10.87;;;;;;;-0.77;78.63;95730.03;1766250;81;20983;-62
2022/04/04 03:55:16;;;;;;;16.27;9.43;;;;;;;-0.72;77.91;95727.16;1766402;81;21086;-62
2022/04/04 03:57:44;;;;;;;21.17;9.67;;;;;;;-0.75;77.89;95736.14;1766517;81;20962;-62
2022/04/04 04:00:13;;;;;;;30.87;10.07;;;;;;;-0.75;77.92;95734.85;1762547;81;21484;-62
2022/04/04 04:02:40;;;;;;;14.87;9.93;;;;;;;-0.70;77.88;95738.02;1762686;81;20998;-62
2022/04/04 04:05:08;;;;;;;19.23;12.23;;;;;;;-0.69;78.15;95734.58;1762744;81;21484;-62
2022/04/04 04:07:35;;;;;;;16.10;11.17;;;;;;;-0.71;78.55;95738.83;1762567;81;21022;-62
2022/04/04 04:10:01;;;;;;;18.77;12.67;;;;;;;-0.68;78.45;95732.86;1762724;81;21058;-63
2022/04/04 04:12:28;;;;;;;16.00;11.73;;;;;;;-0.74;78.63;95730.98;1762492;81;21015;-62
2022/04/04 04:14:55;;;;;;;18.73;14.43;;;;;;;-0.74;78.87;95737.46;1762319;81;20979;-62
2022/04/04 04:17:24;;;;;;;25.20;22.50;;;;;;;-0.67;78.92;95721.67;1762521;81;21118;-62
2022/04/04 04:22:37;;;;;;;12.27;8.80;;;;;;;-0.55;78.56;95732.36;1762216;81;20983;-62
2022/04/04 04:25:06;;;;;;;12.37;9.27;;;;;;;-0.59;78.28;95727.92;1762569;81;21471;-62
2022/04/04 04:27:33;;;;;;;12.00;9.17;;;;;;;-0.55;78.44;95734.95;1762663;81;20991;-62
2022/04/04 04:30:00;;;;;;;227.70;102.13;;;;;;;-0.51;77.94;95738.49;1762421;81;21453;-62
2022/04/04 04:32:27;;;;;;;139.10;64.47;;;;;;;-0.50;77.70;95738.55;1762586;81;21014;-62
2022/04/04 04:34:53;;;;;;;67.87;36.70;;;;;;;-0.61;77.87;95730.89;1762458;81;21070;-63
2022/04/04 04:37:21;;;;;;;23.70;14.63;;;;;;;-0.65;78.20;95734.26;1762630;81;21504;-62
2022/04/04 04:39:49;;;;;;;15.03;10.93;;;;;;;-0.69;78.44;95742.34;1762921;81;20995;-62
2022/04/04 04:42:16;;;;;;;14.23;9.40;;;;;;;-0.65;78.25;95742.03;1762344;81;20983;-62
2022/04/04 04:44:44;;;;;;;37.30;28.07;;;;;;;-0.64;78.25;95739.89;1762497;81;21015;-62
2022/04/04 04:47:11;;;;;;;28.70;19.77;;;;;;;-0.63;78.48;95748.53;1762933;81;21006;-62
2022/04/04 04:49:38;;;;;;;18.77;12.80;;;;;;;-0.61;77.99;95746.44;1762478;81;21503;-61
2022/04/04 04:52:05;;;;;;;13.43;9.63;;;;;;;-0.61;77.77;95741.25;1762712;81;21014;-62
2022/04/04 04:54:32;;;;;;;19.77;14.43;;;;;;;-0.63;77.64;95742.05;1762513;81;21037;-62
2022/04/04 04:56:59;;;;;;;95.03;60.93;;;;;;;-0.64;78.03;95746.79;1761948;81;21019;-62
2022/04/04 04:59:25;;;;;;;49.97;36.30;;;;;;;-0.64;78.33;95750.25;1764507;81;21014;-62
2022/04/04 05:01:52;;;;;;;22.07;16.13;;;;;;;-0.59;78.02;95752.55;1765362;81;21077;-64
2022/04/04 05:04:19;;;;;;;17.53;12.83;;;;;;;-0.55;77.58;95750.94;1765515;81;21530;-63
2022/04/04 05:06:49;;;;;;;18.97;14.53;;;;;;;-0.55;77.50;95750.50;1764567;81;21057;-63
2022/04/04 05:09:17;;;;;;;33.33;26.73;;;;;;;-0.48;77.71;95751.13;1765449;81;21018;-63
2022/04/04 05:11:44;;;;;;;15.63;10.13;;;;;;;-0.37;77.20;95750.11;1764922;81;20990;-63
2022/04/04 05:14:15;;;;;;;21.80;15.80;;;;;;;-0.35;76.39;95749.73;1765199;81;21042;-64
2022/04/04 05:16:40;;;;;;;11.97;9.47;;;;;;;-0.38;76.42;95755.23;1764972;81;21137;-62
2022/04/04 05:19:07;;;;;;;15.97;10.50;;;;;;;-0.32;76.58;95755.41;1764710;81;20990;-65
2022/04/04 05:21:34;;;;;;;15.90;10.60;;;;;;;-0.27;76.10;95752.09;1764644;81;21061;-65
2022/04/04 05:24:01;;;;;;;15.73;10.17;;;;;;;-0.19;75.99;95750.98;1765004;81;21081;-64
2022/04/04 05:26:29;;;;;;;15.37;10.40;;;;;;;-0.16;75.49;95755.37;1765015;81;21018;-65
2022/04/04 05:28:57;;;;;;;16.37;10.53;;;;;;;-0.14;75.56;95761.48;1764641;81;21571;-63
2022/04/04 05:31:24;;;;;;;16.07;10.27;;;;;;;-0.06;75.39;95758.66;1764382;81;21077;-62
2022/04/04 05:33:52;;;;;;;16.80;10.50;;;;;;;-0.09;74.72;95756.86;1765929;81;20986;-64
2022/04/04 05:36:20;;;;;;;17.00;9.20;;;;;;;-0.08;74.75;95758.60;1765161;81;21067;-63
2022/04/04 05:38:50;;;;;;;14.53;9.90;;;;;;;-0.05;74.60;95764.28;1765796;81;21082;-68
2022/04/04 05:41:18;;;;;;;13.83;10.10;;;;;;;-0.05;74.62;95769.08;1765097;81;21077;-65
2022/04/04 05:43:46;;;;;;;13.83;9.70;;;;;;;0.03;74.47;95771.86;1764922;81;21066;-64
2022/04/04 05:46:17;;;;;;;15.47;9.33;;;;;;;0.00;73.84;95765.31;1765322;81;21107;-63
2022/04/04 05:48:45;;;;;;;13.00;10.57;;;;;;;0.05;74.02;95769.28;1764925;81;21042;-63
2022/04/04 05:51:15;;;;;;;13.93;9.73;;;;;;;0.08;74.00;95770.26;1765352;81;21026;-63
2022/04/04 05:53:41;;;;;;;14.93;8.17;;;;;;;0.10;74.04;95773.77;1764663;81;21465;-66
2022/04/04 05:56:08;;;;;;;14.37;10.50;;;;;;;0.09;73.78;95764.22;1765846;81;21065;-64
2022/04/04 05:58:36;;;;;;;13.27;10.00;;;;;;;0.07;73.67;95766.31;1765261;81;21082;-63
2022/04/04 06:01:03;;;;;;;12.07;9.70;;;;;;;0.07;73.65;95765.89;1766074;81;21021;-61
2022/04/04 06:03:31;;;;;;;16.03;14.33;;;;;;;0.13;73.36;95763.46;1765166;81;21642;-63
2022/04/04 06:05:58;;;;;;;11.67;8.13;;;;;;;0.15;73.00;95761.78;1765551;81;21441;-64
2022/04/04 06:08:24;;;;;;;13.23;8.57;;;;;;;0.13;73.14;95758.70;1765618;81;21050;-62
2022/04/04 06:10:52;;;;;;;13.07;8.47;;;;;;;0.18;73.48;95755.79;1765608;81;20998;-63
2022/04/04 06:13:20;;;;;;;16.23;9.10;;;;;;;0.26;73.10;95764.63;1765823;81;21030;-63
2022/04/04 06:15:47;;;;;;;12.67;7.03;;;;;;;0.33;73.07;95757.45;1765484;81;21108;-61
2022/04/04 06:18:15;;;;;;;9.77;7.27;;;;;;;0.33;73.23;95763.94;1765078;81;21073;-63
2022/04/04 06:20:43;;;;;;;9.80;6.70;;;;;;;0.38;72.13;95764.92;1765366;81;21045;-64
2022/04/04 06:23:13;;;;;;;11.90;8.20;;;;;;;0.46;72.07;95763.80;1764976;81;21096;-61
2022/04/04 06:25:41;;;;;;;11.10;8.13;;;;;;;0.51;72.00;95765.20;1765333;81;21037;-62
2022/04/04 06:28:09;;;;;;;11.17;8.00;;;;;;;0.57;71.69;95767.50;1764643;81;21076;-63
2022/04/04 06:30:36;;;;;;;16.60;11.50;;;;;;;0.61;71.26;95765.87;1765062;81;21017;-64
2022/04/04 06:33:06;;;;;;;105.70;66.93;;;;;;;0.79;71.52;95771.88;1764897;81;21085;-62
2022/04/04 06:35:33;;;;;;;60.80;36.87;;;;;;;0.92;71.85;95771.72;1765642;81;21034;-63
2022/04/04 06:38:02;;;;;;;147.93;70.27;;;;;;;1.00;70.90;95764.53;1765688;81;21148;-63
2022/04/04 06:40:34;;;;;;;21.03;11.90;;;;;;;0.99;70.01;95767.98;1765546;81;21380;-62
2022/04/04 06:42:58;;;;;;;32.80;17.80;;;;;;;0.99;70.45;95768.41;1764358;81;21104;-64
2022/04/04 06:45:25;;;;;;;106.30;51.63;;;;;;;1.11;70.40;95767.77;1765881;81;21037;-63
2022/04/04 06:47:52;;;;;;;68.97;37.60;;;;;;;1.12;69.83;95763.05;1764772;81;21030;-62
2022/04/04 06:50:19;;;;;;;160.13;92.80;;;;;;;1.10;69.96;95769.50;1765009;81;21026;-64
2022/04/04 06:52:46;;;;;;;27.20;19.07;;;;;;;1.01;69.13;95772.80;1765310;81;21058;-63
2022/04/04 06:55:12;;;;;;;17.10;12.30;;;;;;;1.06;69.59;95765.11;1765309;81;21061;-64
2022/04/04 06:57:41;;;;;;;14.27;8.53;;;;;;;1.17;70.01;95762.28;1765350;81;21145;-64
2022/04/04 07:00:11;;;;;;;38.47;29.07;;;;;;;1.16;67.67;95763.14;1765252;81;21089;-65
2022/04/04 07:02:39;;;;;;;18.00;11.27;;;;;;;1.22;68.36;95767.58;1765576;81;21133;-65
2022/04/04 07:05:08;;;;;;;12.47;8.50;;;;;;;1.25;67.90;95765.91;1765423;81;21058;-67
2022/04/04 07:07:35;;;;;;;10.57;8.13;;;;;;;1.20;67.13;95770.14;1765237;81;20990;-64
2022/04/04 07:10:05;;;;;;;23.83;20.77;;;;;;;1.20;67.91;95779.23;1765137;81;21097;-63
2022/04/04 07:12:33;;;;;;;11.93;7.70;;;;;;;1.36;68.88;95775.64;1764983;81;21808;-65
2022/04/04 07:15:00;;;;;;;12.27;7.10;;;;;;;1.37;67.88;95779.58;1735474;81;21026;-63
2022/04/04 07:17:27;;;;;;;9.60;7.53;;;;;;;1.48;67.50;95780.65;1765193;81;21077;-63
2022/04/04 07:19:54;;;;;;;10.53;7.80;;;;;;;1.45;66.58;95781.03;1764831;81;21539;-63
2022/04/04 07:22:21;;;;;;;12.17;8.87;;;;;;;1.51;68.58;95776.84;1765475;81;21156;-64
2022/04/04 07:24:48;;;;;;;10.83;7.67;;;;;;;1.63;69.04;95777.47;1765389;81;20990;-62
2022/04/04 07:27:14;;;;;;;10.30;6.37;;;;;;;1.68;67.95;95783.63;1765201;81;21015;-64
2022/04/04 07:29:42;;;;;;;11.53;9.30;;;;;;;1.69;67.48;95778.03;1765185;81;21073;-65
2022/04/04 07:32:09;;;;;;;10.90;7.33;;;;;;;1.73;67.79;95776.79;1765281;81;21073;-63
2022/04/04 07:34:37;;;;;;;8.13;6.77;;;;;;;1.82;68.30;95781.73;1765523;81;21057;-65
2022/04/04 07:37:05;;;;;;;9.97;7.80;;;;;;;1.79;67.13;95779.05;1765746;81;21015;-62
2022/04/04 07:39:32;;;;;;;9.37;5.77;;;;;;;1.81;67.40;95778.23;1765814;81;21066;-63
2022/04/04 07:41:59;;;;;;;11.10;7.10;;;;;;;1.55;66.10;95779.48;1765468;81;21085;-65
2022/04/04 07:44:26;;;;;;;8.43;6.03;;;;;;;1.58;67.17;95778.23;1764849;81;21069;-64
2022/04/04 07:46:53;;;;;;;10.20;6.67;;;;;;;1.61;68.03;95779.16;1765101;81;21077;-65
2022/04/04 07:49:20;;;;;;;11.20;6.70;;;;;;;1.70;67.62;95775.87;1765135;81;21133;-63
2022/04/04 07:51:48;;;;;;;10.63;7.00;;;;;;;1.77;67.72;95784.24;1765293;81;21571;-64
2022/04/04 07:54:15;;;;;;;9.00;7.27;;;;;;;1.90;68.53;95790.11;1765834;81;21531;-63
2022/04/04 07:56:42;;;;;;;9.27;7.40;;;;;;;2.00;67.74;95791.16;1766044;81;21082;-64
2022/04/04 07:59:09;;;;;;;16.77;9.47;;;;;;;2.12;68.24;95786.16;1765204;81;21041;-62
2022/04/04 08:01:36;;;;;;;13.80;10.00;;;;;;;1.96;66.25;95791.94;1761717;81;20995;-65
2022/04/04 08:04:02;;;;;;;10.07;8.37;;;;;;;2.00;68.68;95788.98;1761569;81;21069;-64
2022/04/04 08:06:29;;;;;;;11.43;7.57;;;;;;;2.03;67.98;95791.20;1761665;81;21010;-62
2022/04/04 08:08:56;;;;;;;10.27;7.37;;;;;;;2.03;67.67;95787.73;1761353;81;21062;-63
2022/04/04 08:11:23;;;;;;;10.87;7.47;;;;;;;2.03;67.63;95794.23;1762286;81;21033;-62
2022/04/04 08:13:50;;;;;;;11.67;7.77;;;;;;;2.11;68.11;95795.23;1761933;81;21058;-62
2022/04/04 08:16:17;;;;;;;11.53;7.73;;;;;;;2.23;68.23;95786.77;1761760;81;21540;-63
2022/04/04 08:18:44;;;;;;;8.53;7.07;;;;;;;2.34;67.69;95782.59;1761241;81;21073;-62
2022/04/04 08:21:12;;;;;;;9.97;6.30;;;;;;;2.29;65.83;95786.86;1761482;81;21038;-63
2022/04/04 08:23:39;;;;;;;8.97;7.00;;;;;;;2.33;66.28;95796.48;1760916;81;20998;-63
2022/04/04 08:26:06;;;;;;;7.37;6.10;;;;;;;2.23;64.98;95794.14;1761922;81;21034;-62
2022/04/04 08:28:32;;;;;;;12.00;7.90;;;;;;;2.20;64.46;95793.23;1760400;81;21276;-62
2022/04/04 08:30:59;;;;;;;16.53;9.30;;;;;;;2.17;64.34;95788.85;1761519;81;21321;-64
2022/04/04 08:33:27;;;;;;;17.10;10.60;;;;;;;2.43;67.12;95786.66;1745035;82;21109;-64
2022/04/04 08:35:53;;;;;;;8.07;6.27;;;;;;;2.69;65.82;95784.44;1751089;81;21029;-63
2022/04/04 08:38:21;;;;;;;11.43;7.80;;;;;;;2.79;63.10;95795.45;1761873;81;21082;-63
2022/04/04 08:40:50;;;;;;;11.67;7.63;;;;;;;2.73;57.27;95787.98;1766763;81;22246;-64
2022/04/04 08:43:19;;;;;;;9.73;7.43;;;;;;;2.62;61.67;95779.12;1767530;81;21081;-66
2022/04/04 08:45:49;;;;;;;15.47;8.90;;;;;;;2.27;60.73;95780.73;1767645;81;21015;-63
2022/04/04 08:48:18;;;;;;;7.57;5.50;;;;;;;2.43;65.86;95781.45;1767623;81;21089;-64
2022/04/04 08:50:46;;;;;;;14.87;7.87;;;;;;;2.36;52.79;95782.20;1768163;81;21022;-62
2022/04/04 08:53:14;;;;;;;10.77;7.53;;;;;;;2.53;57.37;95779.88;1767388;81;21073;-63
2022/04/04 08:55:41;;;;;;;8.13;6.73;;;;;;;2.84;55.97;95774.67;1767900;81;20982;-62
2022/04/04 08:58:10;;;;;;;6.00;4.30;;;;;;;3.23;54.93;95779.98;1767672;81;21097;-63
2022/04/04 09:00:38;;;;;;;9.13;6.47;;;;;;;3.36;48.86;95762.32;1751952;81;21087;-62
2022/04/04 09:03:06;;;;;;;7.27;5.60;;;;;;;3.47;49.21;95765.05;1735662;83;20999;-62
2022/04/04 09:05:52;;;;;;;8.37;5.57;;;;;;;3.34;47.78;95770.55;1734911;83;21734;-62
2022/04/04 09:08:20;;;;;;;8.77;6.90;;;;;;;3.25;47.90;95765.21;1732975;82;21009;-62
2022/04/04 09:10:48;;;;;;;8.70;5.60;;;;;;;3.08;47.99;95770.67;1747927;82;21096;-63
2022/04/04 09:13:18;;;;;;;7.07;5.27;;;;;;;3.39;49.10;95771.48;1748513;82;20994;-63
2022/04/04 09:15:58;;;;;;;6.40;5.17;;;;;;;3.63;48.97;95770.90;1748550;82;21045;-63
2022/04/04 09:18:41;;;;;;;7.97;5.77;;;;;;;3.75;48.83;95772.74;1748860;82;21025;-63
2022/04/04 09:21:22;;;;;;;5.42;4.75;;;;;;;3.75;47.44;95773.18;1748585;82;21061;-63
2022/04/04 09:23:56;;;;;;;7.53;5.33;;;;;;;3.55;46.59;95765.13;1749015;82;20993;-62
2022/04/04 09:26:40;;;;;;;8.03;5.30;;;;;;;3.62;46.57;95763.91;1748692;82;21531;-62
2022/04/04 09:29:21;;;;;;;;;;;;;;;3.72;46.32;95754.89;1751845;82;21447;-63
2022/04/04 09:32:09;;;;;;;9.13;6.17;;;;;;;3.90;46.46;95754.63;1748797;82;20103;-62
2022/04/04 09:35:08;;;;;;;6.30;5.10;;;;;;;3.99;47.43;95755.16;1749376;82;21021;-62
2022/04/04 09:37:33;;;;;;;12.90;7.13;;;;;;;4.44;48.52;95750.33;1748797;82;21070;-63
2022/04/04 09:40:14;;;;;;;9.87;7.20;;;;;;;4.96;50.11;95744.11;1749311;82;20998;-62
2022/04/04 09:42:43;;;;;;;6.70;5.63;;;;;;;5.40;49.42;95727.31;1749158;82;21085;-62
2022/04/04 09:45:15;;;;;;;7.20;5.70;;;;;;;5.74;45.56;95731.77;1746094;82;21118;-62
2022/04/04 09:47:58;;;;;;;7.67;4.40;;;;;;;5.79;44.32;95732.20;1749263;82;21140;-63
2022/04/04 09:50:46;;;;;;;7.27;4.90;;;;;;;5.91;43.02;95731.81;1749121;82;21001;-60
2022/04/04 09:53:24;;;;;;;5.37;3.63;;;;;;;5.99;44.46;95722.24;1748972;82;21060;-60
2022/04/04 09:55:57;;;;;;;5.90;4.43;;;;;;;5.97;42.29;95735.77;1747996;82;21045;-60
2022/04/04 09:58:27;;;;;;;6.70;4.83;;;;;;;5.79;42.26;95728.72;1749323;82;21001;-60
2022/04/04 10:00:57;;;;;;;7.87;4.60;;;;;;;5.89;42.42;95732.23;1745690;81;21050;-59
2022/04/04 10:03:24;;;;;;;7.87;4.50;;;;;;;5.83;42.37;95718.27;1743266;82;21526;-60
2022/04/04 10:06:06;;;;;;;5.97;4.30;;;;;;;5.85;40.85;95726.13;1746441;82;21021;-60
2022/04/04 10:08:37;;;;;;;5.03;4.00;;;;;;;6.11;45.07;95729.25;1790954;80;21050;-60
2022/04/04 10:11:10;;;;;;;5.13;4.53;;;;;;;6.08;40.73;95715.72;1791042;80;20975;-60
2022/04/04 10:13:37;;;;;;;7.10;5.00;;;;;;;5.97;42.45;95721.36;1791115;80;21113;-60
2022/04/04 10:16:05;;;;;;;5.77;4.30;;;;;;;6.24;42.00;95723.14;1790795;80;20999;-60
2022/04/04 10:18:33;;;;;;;7.00;5.10;;;;;;;6.22;41.36;95714.40;1791401;80;21003;-60
2022/04/04 10:21:01;;;;;;;5.10;2.97;;;;;;;6.40;47.62;95717.45;1790651;80;21058;-60
2022/04/04 10:23:29;;;;;;;4.57;3.80;;;;;;;6.09;40.14;95712.20;1790852;80;21003;-60
2022/04/04 10:25:58;;;;;;;5.80;4.00;;;;;;;6.12;40.38;95719.20;1790893;80;21081;-60
2022/04/04 10:28:33;;;;;;;4.60;2.80;;;;;;;6.03;43.64;95713.53;1791019;80;21504;-60
2022/04/04 10:31:16;;;;;;;4.37;3.13;;;;;;;6.07;40.05;95710.02;1790838;80;21010;-60
2022/04/04 10:33:45;;;;;;;4.55;3.20;;;;;;;5.98;42.57;95696.50;1791023;80;21033;-60
2022/04/04 10:36:26;;;;;;;3.10;2.80;;;;;;;6.39;40.86;95708.72;1790913;80;21065;-60
2022/04/04 10:38:56;;;;;;;4.40;2.20;;;;;;;6.40;41.58;95709.58;1791231;80;21062;-60
2022/04/04 10:41:30;;;;;;;5.17;2.80;;;;;;;6.49;39.70;95699.97;1790829;80;21026;-60
2022/04/04 10:43:57;;;;;;;4.17;2.73;;;;;;;6.52;40.50;95696.92;1791109;80;20963;-59
2022/04/04 10:46:26;;;;;;;3.97;2.37;;;;;;;6.66;40.92;95697.34;1790753;80;21098;-59
2022/04/04 10:49:02;;;;;;;2.90;2.40;;;;;;;6.69;38.91;95693.39;1791050;80;20971;-60
2022/04/04 10:51:35;;;;;;;3.43;2.63;;;;;;;6.89;38.97;95695.97;1788142;80;21548;-60
2022/04/04 10:54:08;;;;;;;5.28;2.85;;;;;;;6.61;39.22;95693.84;1791177;80;21067;-60
2022/04/04 10:56:46;;;;;;;3.30;3.00;;;;;;;6.37;37.53;95708.28;1791323;80;21006;-60
2022/04/04 10:59:24;;;;;;;4.27;3.20;;;;;;;5.80;40.08;95702.55;1791062;80;21002;-60
2022/04/04 11:01:55;;;;;;;3.97;2.90;;;;;;;5.77;41.35;95699.94;1785083;80;21496;-60
2022/04/04 11:04:29;;;;;;;4.83;3.83;;;;;;;5.71;41.02;95695.98;1758957;80;21071;-60
2022/04/04 11:10:05;;;;;;;5.03;3.07;;;;;;;5.95;40.07;95694.33;1785020;80;21504;-62
2022/04/04 11:12:28;;;;;;;3.83;2.93;;;;;;;6.16;42.37;95686.91;1784998;80;21538;-59
2022/04/04 11:15:07;;;;;;;5.80;3.57;;;;;;;6.13;40.14;95697.39;1784879;80;21030;-60
2022/04/04 11:17:48;;;;;;;3.20;2.30;;;;;;;6.19;41.21;95696.06;1784928;80;21049;-60
2022/04/04 11:20:31;;;;;;;4.50;3.47;;;;;;;5.96;38.95;95698.67;1753960;80;21030;-59
2022/04/04 11:23:08;;;;;;;8.13;3.37;;;;;;;5.45;40.46;95705.09;1784665;80;21480;-60
2022/04/04 11:25:38;;;;;;;3.77;3.03;;;;;;;5.46;40.72;95702.90;1785245;80;20990;-60
2022/04/04 11:28:06;;;;;;;5.63;3.87;;;;;;;5.13;40.60;95701.05;1784951;80;20971;-60
2022/04/04 11:30:33;;;;;;;4.33;3.27;;;;;;;5.01;42.22;95694.01;1784853;80;21010;-59
2022/04/04 11:33:00;;;;;;;5.63;4.10;;;;;;;4.87;41.76;95704.42;1784916;80;21003;-59
2022/04/04 11:35:31;;;;;;;5.90;4.40;;;;;;;4.88;42.85;95703.54;1785058;80;21043;-59
2022/04/04 11:38:11;;;;;;;4.57;4.03;;;;;;;4.63;42.68;95705.58;1784936;80;21058;-60
2022/04/04 11:40:42;;;;;;;5.60;3.97;;;;;;;4.61;43.91;95692.93;1785274;80;20991;-60
2022/04/04 11:43:12;;;;;;;6.80;4.10;;;;;;;4.69;43.41;95692.56;1784619;80;21429;-60
2022/04/04 11:45:41;;;;;;;5.10;3.37;;;;;;;4.72;42.85;95696.06;1784305;80;21034;-60